createdAt,value
2023-09-27T00:00:15.171Z,36.10
2023-09-27T00:03:04.778Z,29.10
2023-09-27T00:05:33.344Z,34.20
2023-09-27T00:08:01.950Z,26.10
2023-09-27T00:10:29.931Z,34.60
2023-09-27T00:12:57.861Z,28.90
2023-09-27T00:15:26.613Z,28.90
2023-09-27T00:17:56.001Z,33.30
2023-09-27T00:20:24.070Z,34.40
2023-09-27T00:22:53.005Z,35.60
2023-09-27T00:25:21.114Z,27.60
2023-09-27T00:27:49.524Z,30.10
2023-09-27T00:30:17.835Z,35.20
2023-09-27T00:32:46.879Z,54.50
2023-09-27T00:35:21.014Z,48.20
2023-09-27T00:37:51.133Z,40.60
2023-09-27T00:40:23.164Z,31.30
2023-09-27T00:42:51.378Z,33.80
2023-09-27T00:45:19.956Z,27.40
2023-09-27T00:47:50.504Z,23.50
2023-09-27T00:50:18.916Z,24.10
2023-09-27T00:52:49.329Z,28.20
2023-09-27T00:55:23.286Z,24.40
2023-09-27T00:58:03.868Z,31.10
2023-09-27T01:00:32.313Z,33.70
2023-09-27T01:03:00.454Z,37.00
2023-09-27T01:05:29.221Z,31.40
2023-09-27T01:07:57.318Z,37.50
2023-09-27T01:10:25.361Z,29.10
2023-09-27T01:12:54.886Z,31.00
2023-09-27T01:15:23.158Z,31.90
2023-09-27T01:17:58.325Z,30.40
2023-09-27T01:20:28.917Z,30.20
2023-09-27T01:23:03.958Z,29.60
2023-09-27T01:25:37.567Z,30.70
2023-09-27T01:28:12.985Z,24.90
2023-09-27T01:30:41.256Z,24.90
2023-09-27T01:36:28.900Z,23.60
2023-09-27T01:38:56.868Z,27.70
2023-09-27T01:41:25.001Z,25.70
2023-09-27T01:43:53.881Z,34.70
2023-09-27T01:46:22.018Z,26.30
2023-09-27T01:48:50.096Z,38.90
2023-09-27T01:51:18.103Z,31.60
2023-09-27T01:53:47.176Z,44.20
2023-09-27T01:56:15.076Z,57.60
2023-09-27T01:58:43.080Z,27.50
2023-09-27T02:01:11.116Z,36.30
2023-09-27T02:03:39.273Z,30.60
2023-09-27T02:06:07.374Z,14.60
2023-09-27T02:08:35.349Z,25.80
2023-09-27T02:11:04.062Z,24.20
2023-09-27T02:13:32.067Z,25.30
2023-09-27T02:16:00.509Z,21.70
2023-09-27T02:18:28.798Z,51.40
2023-09-27T02:20:56.731Z,21.10
2023-09-27T02:23:24.759Z,28.10
2023-09-27T02:26:00.099Z,31.70
2023-09-27T02:28:28.098Z,24.10
2023-09-27T02:30:56.362Z,54.30
2023-09-27T02:33:24.523Z,32.00
2023-09-27T02:35:53.354Z,71.50
2023-09-27T02:38:21.670Z,33.40
2023-09-27T02:40:51.152Z,38.00
2023-09-27T02:43:19.047Z,86.30
2023-09-27T02:45:47.065Z,61.40
2023-09-27T02:48:15.010Z,37.00
2023-09-27T02:50:49.552Z,47.40
2023-09-27T02:53:17.792Z,77.60
2023-09-27T02:55:45.822Z,71.70
2023-09-27T02:58:13.869Z,29.40
2023-09-27T03:00:42.268Z,31.00
2023-09-27T03:03:11.177Z,49.20
2023-09-27T03:05:40.095Z,34.80
2023-09-27T03:08:09.208Z,74.30
2023-09-27T03:10:39.566Z,32.90
2023-09-27T03:13:09.311Z,34.50
2023-09-27T03:15:37.800Z,26.90
2023-09-27T03:18:06.617Z,29.40
2023-09-27T03:20:37.193Z,31.80
2023-09-27T03:23:05.248Z,31.70
2023-09-27T03:25:34.154Z,27.20
2023-09-27T03:28:02.133Z,31.80
2023-09-27T03:30:30.407Z,26.20
2023-09-27T03:32:58.556Z,24.30
2023-09-27T03:35:28.104Z,23.60
2023-09-27T03:37:58.196Z,27.30
2023-09-27T03:40:26.192Z,26.90
2023-09-27T03:42:54.121Z,26.30
2023-09-27T03:45:22.208Z,27.50
2023-09-27T03:47:51.258Z,27.70
2023-09-27T03:50:21.270Z,24.60
2023-09-27T03:52:49.322Z,26.90
2023-09-27T03:55:17.268Z,26.90
2023-09-27T03:57:45.238Z,29.30
2023-09-27T04:04:56.617Z,30.10
2023-09-27T04:07:24.873Z,41.30
2023-09-27T04:09:53.585Z,28.70
2023-09-27T04:12:21.623Z,31.30
2023-09-27T04:14:49.622Z,25.60
2023-09-27T04:17:17.756Z,31.00
2023-09-27T04:19:45.814Z,42.90
2023-09-27T04:22:13.824Z,24.50
2023-09-27T04:24:41.831Z,60.10
2023-09-27T04:27:09.784Z,42.60
2023-09-27T04:29:38.031Z,31.70
2023-09-27T04:34:37.564Z,52.20
2023-09-27T04:37:05.561Z,89.20
2023-09-27T04:39:33.595Z,233.60
2023-09-27T04:42:01.519Z,184.50
2023-09-27T04:44:29.810Z,115.40
2023-09-27T04:46:58.238Z,199.40
2023-09-27T04:49:27.054Z,177.60
2023-09-27T04:51:55.004Z,155.40
2023-09-27T04:54:22.958Z,116.80
2023-09-27T04:56:50.941Z,127.70
2023-09-27T04:59:27.954Z,132.90
2023-09-27T05:02:02.548Z,121.60
2023-09-27T05:04:31.280Z,104.70
2023-09-27T05:06:59.687Z,123.20
2023-09-27T05:09:28.949Z,95.70
2023-09-27T05:11:57.545Z,71.90
2023-09-27T05:14:26.096Z,75.50
2023-09-27T05:16:54.736Z,62.70
2023-09-27T05:19:23.219Z,60.10
2023-09-27T05:21:52.022Z,65.00
2023-09-27T05:24:20.808Z,52.80
2023-09-27T05:26:49.680Z,47.00
2023-09-27T05:29:18.519Z,46.30
2023-09-27T05:31:48.407Z,47.40
2023-09-27T05:34:16.726Z,46.40
2023-09-27T05:36:44.660Z,41.30
2023-09-27T05:39:12.933Z,45.80
2023-09-27T05:41:41.137Z,44.70
2023-09-27T05:44:09.564Z,45.20
2023-09-27T05:46:37.806Z,36.20
2023-09-27T05:49:09.445Z,42.10
2023-09-27T05:51:37.921Z,38.70
2023-09-27T05:54:07.041Z,35.30
2023-09-27T05:56:35.172Z,36.00
2023-09-27T05:59:04.500Z,34.00
2023-09-27T06:01:33.272Z,32.40
2023-09-27T06:04:01.422Z,35.20
2023-09-27T06:06:30.306Z,40.40
2023-09-27T06:08:59.795Z,32.00
2023-09-27T06:11:29.466Z,28.80
2023-09-27T06:14:00.223Z,31.40
2023-09-27T06:16:29.626Z,26.10
2023-09-27T06:18:59.552Z,29.40
2023-09-27T06:21:27.981Z,25.50
2023-09-27T06:23:56.242Z,29.90
2023-09-27T11:04:38.011Z,12.30
2023-09-27T11:07:06.240Z,14.90
2023-09-27T11:09:44.808Z,13.20
2023-09-27T11:12:22.190Z,13.60
2023-09-27T11:14:50.480Z,12.40
2023-09-27T11:17:24.409Z,15.90
2023-09-27T11:19:53.777Z,11.60
2023-09-27T11:22:29.446Z,14.40
2023-09-27T11:24:57.787Z,11.90
2023-09-27T11:27:27.068Z,11.30
2023-09-27T11:29:58.338Z,12.40
2023-09-27T11:32:27.103Z,11.70
2023-09-27T11:34:59.345Z,14.90
2023-09-27T11:37:29.789Z,16.60
2023-09-27T11:39:58.650Z,12.90
2023-09-27T11:42:27.963Z,12.30
2023-09-27T11:45:09.327Z,13.80
2023-09-27T11:47:50.857Z,11.80
2023-09-27T11:50:20.889Z,12.40
2023-09-27T11:52:49.177Z,17.10
2023-09-27T11:55:18.262Z,13.30
2023-09-27T11:57:47.536Z,12.50
2023-09-27T12:00:18.548Z,15.80
2023-09-27T12:02:56.394Z,11.50
2023-09-27T12:05:28.355Z,14.90
2023-09-27T12:07:57.075Z,13.10
2023-09-27T12:10:25.862Z,17.00
2023-09-27T12:12:55.592Z,9.60
2023-09-27T12:15:23.904Z,10.80
2023-09-27T12:17:52.155Z,10.10
2023-09-27T12:20:36.042Z,12.10
2023-09-27T12:23:05.079Z,11.40
2023-09-27T12:25:34.839Z,11.80
2023-09-27T12:28:04.455Z,12.70
2023-09-27T12:30:32.524Z,10.30
2023-09-27T12:33:00.765Z,11.20
2023-09-27T12:35:29.382Z,9.40
2023-09-27T12:37:57.434Z,13.30
2023-09-27T12:40:25.614Z,11.30
2023-09-27T12:42:53.809Z,12.70
2023-09-27T12:45:22.009Z,10.60
2023-09-27T12:47:50.303Z,11.30
2023-09-27T12:50:22.033Z,9.50
2023-09-27T12:52:50.287Z,10.40
2023-09-27T12:55:18.851Z,10.80
2023-09-27T12:57:47.804Z,12.10
2023-09-27T13:00:16.662Z,14.30
2023-09-27T13:02:45.312Z,12.60
2023-09-27T13:05:13.421Z,9.40
2023-09-27T13:07:41.853Z,13.20
2023-09-27T13:10:10.345Z,10.60
2023-09-27T13:12:41.458Z,9.30
2023-09-27T13:15:11.744Z,12.00
2023-09-27T13:17:40.169Z,11.50
2023-09-27T13:20:11.758Z,13.60
2023-09-27T13:22:40.172Z,11.50
2023-09-27T13:25:12.059Z,10.90
2023-09-27T13:27:41.581Z,13.80
2023-09-27T13:30:18.760Z,10.20
2023-09-27T13:32:59.807Z,9.30
2023-09-27T13:35:28.133Z,14.20
2023-09-27T13:37:56.196Z,11.80
2023-09-27T13:40:24.291Z,14.40
2023-09-27T13:42:52.288Z,11.90
2023-09-27T13:45:20.582Z,13.00
2023-09-27T13:47:49.054Z,10.80
2023-09-27T13:50:17.596Z,8.10
2023-09-27T13:52:47.463Z,12.20
2023-09-27T13:55:16.264Z,11.50
2023-09-27T13:57:44.412Z,9.20
2023-09-27T14:00:14.781Z,13.60
2023-09-27T14:02:44.148Z,15.40
2023-09-27T14:05:13.213Z,10.00
2023-09-27T14:07:43.651Z,12.30
2023-09-27T14:10:11.991Z,14.00
2023-09-27T14:12:40.374Z,9.00
2023-09-27T14:15:10.288Z,12.70
2023-09-27T14:17:40.189Z,11.20
2023-09-27T14:20:09.201Z,11.80
2023-09-27T14:22:37.858Z,10.50
2023-09-27T14:25:09.312Z,15.30
2023-09-27T14:27:37.815Z,13.60
2023-09-27T14:30:07.580Z,10.10
2023-09-27T14:32:35.859Z,10.20
2023-09-27T14:35:04.133Z,12.70
2023-09-27T14:37:32.419Z,9.00
2023-09-27T14:40:00.415Z,10.50
2023-09-27T14:42:28.531Z,11.30
2023-09-27T14:44:58.465Z,8.60
2023-09-27T14:47:27.123Z,13.70
2023-09-27T14:49:58.575Z,11.60
2023-09-27T14:52:28.473Z,8.30
2023-09-27T14:54:56.773Z,12.90
2023-09-27T14:57:24.813Z,9.30
2023-09-27T14:59:53.814Z,10.20
2023-09-27T15:02:22.284Z,12.80
2023-09-27T15:04:50.859Z,9.60
2023-09-27T15:07:20.832Z,11.60
2023-09-27T15:09:49.240Z,9.80
2023-09-27T15:12:17.817Z,9.20
2023-09-27T15:14:45.898Z,9.80
2023-09-27T15:17:17.666Z,11.40
2023-09-27T15:19:45.824Z,14.60
2023-09-27T15:22:16.039Z,17.20
2023-09-27T15:24:44.339Z,13.40
2023-09-27T15:27:12.749Z,11.50
2023-09-27T15:29:41.204Z,15.70
2023-09-27T15:32:09.505Z,15.40
2023-09-27T15:34:38.242Z,17.50
2023-09-27T15:37:09.490Z,11.10
2023-09-27T15:39:37.608Z,10.40
2023-09-27T15:42:06.474Z,12.20
2023-09-27T15:44:41.650Z,12.50
2023-09-27T15:47:13.215Z,12.90
2023-09-27T15:49:42.005Z,10.80
2023-09-27T15:52:10.284Z,16.70
2023-09-27T15:54:38.420Z,12.30
2023-09-27T15:57:07.198Z,13.90
2023-09-27T15:59:35.265Z,14.10
2023-09-27T16:02:03.887Z,16.10
2023-09-27T16:04:42.325Z,12.10
2023-09-27T16:07:19.461Z,12.30
2023-09-27T16:09:47.522Z,16.00
2023-09-27T16:12:15.895Z,11.70
2023-09-27T16:14:44.077Z,13.60
2023-09-27T16:17:12.046Z,12.70
2023-09-27T16:19:40.135Z,17.70
2023-09-27T16:22:08.557Z,31.70
2023-09-27T16:24:36.547Z,28.50
2023-09-27T16:27:05.299Z,62.10
2023-09-27T16:29:33.470Z,23.30
2023-09-27T16:32:02.711Z,22.30
2023-09-27T16:34:30.889Z,24.50
2023-09-27T16:37:01.886Z,18.90
2023-09-27T16:39:30.072Z,21.40
2023-09-27T16:41:58.104Z,20.20
2023-09-27T16:44:26.225Z,32.00
2023-09-27T16:46:54.181Z,91.10
2023-09-27T16:49:22.213Z,86.40
2023-09-27T16:51:50.359Z,37.80
2023-09-27T16:54:18.923Z,49.70
2023-09-27T16:56:47.826Z,36.80
2023-09-27T16:59:17.808Z,20.30
2023-09-27T17:01:46.014Z,24.80
2023-09-27T17:04:14.104Z,18.20
2023-09-27T17:06:43.447Z,17.90
2023-09-27T17:09:11.771Z,18.20
2023-09-27T17:11:39.899Z,18.70
2023-09-27T17:14:07.937Z,16.70
2023-09-27T17:16:36.166Z,22.00
2023-09-27T17:19:04.950Z,31.70
2023-09-27T17:21:34.667Z,44.60
2023-09-27T17:24:02.999Z,33.00
2023-09-27T17:26:31.261Z,38.10
2023-09-27T17:28:59.624Z,42.20
2023-09-27T17:31:27.841Z,38.10
2023-09-27T17:33:56.174Z,37.70
2023-09-27T17:36:25.204Z,47.00
2023-09-27T17:38:53.382Z,37.40
2023-09-27T17:41:21.440Z,42.50
2023-09-27T17:43:49.569Z,27.90
2023-09-27T17:46:25.531Z,28.90
2023-09-27T17:48:54.626Z,28.30
2023-09-27T17:51:22.608Z,20.10
2023-09-27T17:53:52.320Z,22.00
2023-09-27T17:56:20.497Z,19.90
2023-09-27T17:58:48.959Z,21.10
2023-09-27T18:01:21.402Z,27.00
2023-09-27T18:03:49.532Z,23.20
2023-09-27T18:06:18.347Z,16.30
2023-09-27T18:08:46.530Z,14.60
2023-09-27T18:11:16.552Z,20.20
2023-09-27T18:13:45.041Z,19.50
2023-09-27T18:16:18.785Z,16.00
2023-09-27T18:18:49.054Z,21.80
2023-09-27T18:21:19.351Z,16.60
2023-09-27T18:23:49.930Z,17.10
2023-09-27T18:26:18.705Z,18.50
2023-09-27T18:28:47.095Z,15.60
2023-09-27T18:31:15.311Z,23.70
2023-09-27T18:41:07.556Z,22.50
2023-09-27T18:43:35.622Z,15.90
2023-09-27T18:46:06.102Z,12.50
2023-09-27T18:48:34.491Z,14.50
2023-09-27T18:51:02.684Z,10.00
2023-09-27T18:53:30.904Z,21.90
2023-09-27T18:55:59.206Z,17.90
2023-09-27T18:58:27.651Z,10.70
2023-09-27T19:04:37.552Z,16.30
2023-09-27T19:09:33.742Z,13.40
2023-09-27T19:12:01.825Z,17.80
2023-09-27T19:14:29.929Z,11.00
2023-09-27T19:16:58.002Z,23.90
2023-09-27T19:19:26.628Z,18.70
2023-09-27T19:21:54.814Z,21.00
2023-09-27T19:24:22.960Z,26.60
2023-09-27T19:26:51.082Z,18.60
2023-09-27T19:29:19.718Z,18.10
2023-09-27T19:31:47.949Z,17.50
2023-09-27T19:34:16.682Z,13.90
2023-09-27T19:36:45.522Z,20.80
2023-09-27T19:39:14.452Z,20.00
2023-09-27T19:41:45.019Z,15.20
2023-09-27T19:44:14.248Z,17.40
2023-09-27T19:46:42.869Z,22.80
2023-09-27T19:49:11.160Z,15.80
2023-09-27T19:51:39.425Z,19.00
2023-09-27T19:54:08.329Z,17.90
2023-09-27T19:56:36.367Z,20.20
2023-09-27T19:59:05.101Z,23.50
2023-09-27T20:01:35.205Z,18.80
2023-09-27T20:04:04.055Z,20.30
2023-09-27T20:06:37.754Z,19.20
2023-09-27T20:09:06.212Z,20.50
2023-09-27T20:11:34.484Z,21.10
2023-09-27T20:14:04.553Z,19.50
2023-09-27T20:16:34.077Z,15.00
2023-09-27T20:19:06.764Z,26.00
2023-09-27T20:21:36.506Z,20.30
2023-09-27T20:24:04.988Z,19.50
2023-09-27T20:26:35.369Z,16.40
2023-09-27T20:29:04.059Z,19.80
2023-09-27T20:31:32.274Z,19.00
2023-09-27T20:34:00.485Z,26.50
2023-09-27T20:36:28.609Z,25.80
2023-09-27T20:38:56.809Z,29.70
2023-09-27T20:41:24.822Z,23.40
2023-09-27T20:43:53.163Z,26.70
2023-09-27T20:46:21.543Z,27.70
2023-09-27T20:48:49.591Z,22.90
2023-09-27T20:51:17.718Z,19.50
2023-09-27T20:53:45.748Z,17.00
2023-09-27T20:56:13.821Z,19.90
2023-09-27T20:58:42.738Z,21.80
2023-09-27T21:01:37.027Z,20.60
2023-09-27T21:04:06.085Z,21.00
2023-09-27T21:06:34.626Z,17.90
2023-09-27T21:09:04.368Z,17.90
2023-09-27T21:11:32.643Z,19.60
2023-09-27T21:14:02.853Z,29.90
2023-09-27T21:16:32.913Z,24.90
2023-09-27T21:19:01.385Z,19.70
2023-09-27T21:21:31.224Z,21.40
2023-09-27T21:23:59.614Z,20.40
2023-09-27T21:26:28.098Z,19.60
2023-09-27T21:28:56.347Z,21.60
2023-09-27T21:31:24.549Z,20.90
2023-09-27T21:33:53.806Z,23.80
2023-09-27T21:36:21.980Z,21.90
2023-09-27T21:38:50.156Z,22.40
2023-09-27T21:41:19.129Z,25.60
2023-09-27T21:43:47.397Z,22.70
2023-09-27T21:46:19.127Z,22.00
2023-09-27T21:48:51.301Z,21.80
2023-09-27T21:51:19.887Z,23.70
2023-09-27T21:53:47.936Z,24.60
2023-09-27T21:56:16.439Z,25.00
2023-09-27T21:58:45.085Z,10.90
2023-09-27T22:01:14.507Z,16.60
2023-09-27T22:03:43.334Z,12.40
2023-09-27T22:06:11.822Z,18.10
2023-09-27T22:08:49.374Z,22.20
2023-09-27T22:11:18.096Z,22.30
2023-09-27T22:13:49.314Z,19.70
2023-09-27T22:16:22.516Z,21.50
2023-09-27T22:18:51.004Z,18.90
2023-09-27T22:21:29.050Z,17.60
2023-09-27T22:23:58.918Z,15.00
2023-09-27T22:26:26.964Z,21.60
2023-09-27T22:28:57.228Z,32.30
2023-09-27T22:31:32.180Z,22.70
2023-09-27T22:34:11.665Z,18.50
2023-09-27T22:36:47.842Z,12.20
2023-09-27T22:39:20.557Z,17.90
2023-09-27T22:41:53.304Z,19.10
2023-09-27T22:44:24.147Z,24.10
2023-09-27T22:46:54.424Z,26.60
2023-09-27T22:49:24.589Z,28.10
2023-09-27T22:51:53.480Z,19.90
2023-09-27T22:54:22.918Z,9.90
2023-09-27T22:56:53.855Z,16.50
2023-09-27T22:59:22.833Z,23.80
2023-09-27T23:01:56.160Z,19.70
2023-09-27T23:04:24.920Z,9.40
2023-09-27T23:07:03.335Z,20.20
2023-09-27T23:09:38.186Z,22.80
2023-09-27T23:12:20.759Z,23.20
2023-09-27T23:15:04.553Z,22.00
2023-09-27T23:17:52.831Z,16.20
2023-09-27T23:20:28.712Z,18.30
2023-09-27T23:22:59.129Z,17.40
2023-09-27T23:25:53.337Z,17.50
2023-09-27T23:28:41.654Z,16.70
2023-09-27T23:31:10.347Z,20.00
2023-09-27T23:33:43.584Z,16.60
2023-09-27T23:36:27.016Z,23.30
2023-09-27T23:38:59.378Z,15.00
2023-09-27T23:41:32.370Z,15.20
2023-09-27T23:44:10.122Z,19.20
2023-09-27T23:46:40.683Z,10.30
2023-09-27T23:49:17.730Z,14.90
2023-09-27T23:51:46.050Z,18.10
2023-09-27T23:54:14.973Z,23.80
2023-09-27T23:56:43.229Z,25.20
2023-09-27T23:59:21.596Z,19.00
